Terminal Aerodrome Forecast
Issued by NWS

Home | Current Version | Previous Version | Text Only | Print | Product List | Glossary On
Versions: 1 2 3 4 5 6 7 8 9 10 11 12 13
000
FTUS46 KHNX 191148
TAFMCE
TAF
KMCE 191148Z 1912/2012 10004KT P6SM BKN100
     FM191700 12006KT P6SM OVC080
     FM191900 13007KT P6SM -RA OVC060
      TEMPO 1920/1924 4SM RA BR BKN040
     FM200000 14008KT P6SM VCSH BKN040
     FM200900 VRB04KT 3SM BR BKN025
      TEMPO 2009/2012 1 1/2SM BR BKN005=

USA.gov is the U.S. government's official web portal to all federal, state and local government web resources and services.